Time;durP1;ratioP1;P1;durP2;ratioP2;P2;SDS_P1;SDS_P2;PMS_P1;PMS_P2;Temp;Humidity;BMP_temperature;BMP_pressure;BME280_temperature;BME280_humidity;BME280_pressure;Samples;Min_cycle;Max_cycle;Signal;HPM_P1;HPM_P2
2021/12/21 00:01:47;;;;;;;10.90;7.40;;;;;;;;;;105900;1292;64902;-27
2021/12/21 00:04:14;;;;;;;11.40;6.50;;;;;;;;;;105642;1296;64964;-27
2021/12/21 00:06:43;;;;;;;11.60;6.60;;;;;;;;;;105915;1289;64881;-25
2021/12/21 00:09:10;;;;;;;9.40;6.10;;;;;;;;;;105715;1292;64724;-25
2021/12/21 00:11:37;;;;;;;10.80;6.80;;;;;;;;;;105855;1293;64849;-25
2021/12/21 00:17:08;;;;;;;12.10;6.90;;;;;;;;;;105913;1293;64857;-26
2021/12/21 00:20:07;;;;;;;11.30;6.40;;;;;;;;;;105893;1291;64904;-25
2021/12/21 00:23:11;;;;;;;10.60;6.40;;;;;;;;;;105704;1294;64871;-27
2021/12/21 00:25:22;;;;;;;10.10;6.40;;;;;;;;;;105930;1289;64819;-26
2021/12/21 00:27:51;;;;;;;9.80;6.60;;;;;;;;;;105722;1294;64953;-26
2021/12/21 00:30:19;;;;;;;10.90;7.60;;;;;;;;;;105904;1289;64847;-29
2021/12/21 00:32:46;;;;;;;12.70;6.90;;;;;;;;;;105787;1294;64923;-26
2021/12/21 00:35:12;;;;;;;11.60;7.00;;;;;;;;;;105814;1294;64887;-27
2021/12/21 00:37:41;;;;;;;10.50;6.20;;;;;;;;;;105900;1292;64843;-25
2021/12/21 00:40:09;;;;;;;11.10;6.60;;;;;;;;;;105890;1289;65509;-29
2021/12/21 00:42:36;;;;;;;8.70;6.00;;;;;;;;;;105884;1291;64948;-25
2021/12/21 00:45:04;;;;;;;9.40;6.20;;;;;;;;;;105860;1286;64737;-26
2021/12/21 00:47:33;;;;;;;9.50;6.20;;;;;;;;;;105812;1291;64964;-26
2021/12/21 00:50:03;;;;;;;10.20;6.20;;;;;;;;;;105927;1293;64742;-25
2021/12/21 00:52:30;;;;;;;11.10;6.90;;;;;;;;;;105877;1291;64859;-26
2021/12/21 00:54:57;;;;;;;11.90;6.80;;;;;;;;;;105906;1290;64880;-25
2021/12/21 00:57:24;;;;;;;10.90;6.50;;;;;;;;;;105888;1292;64878;-25
2021/12/21 00:59:51;;;;;;;12.20;6.60;;;;;;;;;;105780;1294;64781;-26
2021/12/21 01:02:18;;;;;;;11.10;7.20;;;;;;;;;;105772;1293;64852;-26
2021/12/21 01:04:48;;;;;;;11.40;6.60;;;;;;;;;;105870;1289;64857;-25
2021/12/21 01:07:26;;;;;;;9.90;6.00;;;;;;;;;;105919;1289;64776;-26
2021/12/21 01:15:22;;;;;;;10.70;6.30;;;;;;;;;;105667;1293;64841;-27
2021/12/21 01:18:05;;;;;;;10.60;6.90;;;;;;;;;;105909;1293;64839;-27
2021/12/21 01:20:48;;;;;;;11.80;6.50;;;;;;;;;;105602;1294;64834;-32
2021/12/21 01:28:24;;;;;;;10.00;6.30;;;;;;;;;;105846;1289;64915;-26
2021/12/21 01:31:02;;;;;;;11.20;6.50;;;;;;;;;;105778;1293;64888;-26
2021/12/21 01:41:45;;;;;;;8.30;6.30;;;;;;;;;;105350;1296;64783;-25
2021/12/21 01:49:32;;;;;;;10.00;5.70;;;;;;;;;;105721;1294;64845;-26
2021/12/21 01:50:00;;;;;;;9.70;5.90;;;;;;;;;;105732;1292;64947;-25
2021/12/21 01:52:27;;;;;;;10.00;5.70;;;;;;;;;;105683;1286;64832;-25
2021/12/21 01:54:55;;;;;;;9.20;5.40;;;;;;;;;;105529;1296;64756;-25
2021/12/21 01:57:22;;;;;;;8.30;5.40;;;;;;;;;;105705;1293;64786;-37
2021/12/21 01:59:50;;;;;;;8.60;5.90;;;;;;;;;;105694;1293;64930;-25
2021/12/21 02:02:17;;;;;;;7.70;5.20;;;;;;;;;;105734;1293;64754;-26
2021/12/21 02:04:45;;;;;;;8.00;5.40;;;;;;;;;;105515;1293;64937;-25
2021/12/21 02:07:12;;;;;;;8.10;5.00;;;;;;;;;;105530;1292;64855;-25
2021/12/21 02:09:40;;;;;;;8.50;5.40;;;;;;;;;;105704;1294;64849;-26
2021/12/21 02:12:09;;;;;;;7.90;4.90;;;;;;;;;;105730;1292;64784;-27
2021/12/21 02:14:37;;;;;;;8.00;5.20;;;;;;;;;;105707;1295;64833;-26
2021/12/21 02:20:08;;;;;;;8.10;4.80;;;;;;;;;;105696;1292;65937;-25
2021/12/21 02:22:41;;;;;;;7.80;4.80;;;;;;;;;;105617;1296;64787;-36
2021/12/21 02:25:36;;;;;;;8.60;5.40;;;;;;;;;;105720;1292;64880;-26
2021/12/21 02:28:21;;;;;;;9.20;5.00;;;;;;;;;;105705;1295;64863;-26
2021/12/21 02:30:51;;;;;;;8.60;5.00;;;;;;;;;;105727;1294;64791;-26
2021/12/21 02:33:18;;;;;;;8.20;4.80;;;;;;;;;;105802;1290;64735;-26
2021/12/21 02:35:45;;;;;;;7.60;4.70;;;;;;;;;;105598;1293;64882;-26
2021/12/21 02:38:12;;;;;;;8.60;4.70;;;;;;;;;;105791;1291;64776;-26
2021/12/21 02:40:41;;;;;;;8.40;5.10;;;;;;;;;;105806;1290;65025;-25
2021/12/21 02:43:10;;;;;;;8.00;4.90;;;;;;;;;;105804;1290;64926;-25
2021/12/21 02:45:38;;;;;;;8.40;4.90;;;;;;;;;;105812;1291;64773;-27
2021/12/21 02:48:05;;;;;;;8.20;5.20;;;;;;;;;;105870;1290;64890;-26
2021/12/21 02:50:33;;;;;;;8.90;4.90;;;;;;;;;;105843;1290;64768;-25
2021/12/21 02:53:01;;;;;;;8.50;4.60;;;;;;;;;;105824;1289;64820;-25
2021/12/21 02:55:28;;;;;;;7.50;4.60;;;;;;;;;;105607;1294;64890;-26
2021/12/21 02:57:57;;;;;;;7.40;4.20;;;;;;;;;;105798;1292;64754;-26
2021/12/21 03:00:25;;;;;;;8.50;4.80;;;;;;;;;;105813;1290;64969;-32
2021/12/21 03:02:53;;;;;;;9.40;4.60;;;;;;;;;;105821;1291;64979;-26
2021/12/21 03:05:20;;;;;;;8.20;4.80;;;;;;;;;;105629;1293;64857;-25
2021/12/21 03:10:29;;;;;;;7.90;4.70;;;;;;;;;;105822;1290;64843;-26
2021/12/21 03:15:43;;;;;;;7.80;4.50;;;;;;;;;;105851;1289;64826;-25
2021/12/21 03:18:10;;;;;;;9.10;4.80;;;;;;;;;;105822;1290;64858;-24
2021/12/21 03:20:37;;;;;;;7.40;4.20;;;;;;;;;;105479;1287;64904;-25
2021/12/21 03:23:05;;;;;;;8.50;4.60;;;;;;;;;;105800;1290;64818;-26
2021/12/21 03:25:31;;;;;;;7.80;4.20;;;;;;;;;;105833;1293;66454;-26
2021/12/21 03:27:58;;;;;;;6.90;4.00;;;;;;;;;;105812;1291;64911;-25
2021/12/21 03:30:26;;;;;;;7.50;4.60;;;;;;;;;;105861;1291;65505;-26
2021/12/21 03:32:53;;;;;;;7.90;4.50;;;;;;;;;;105809;1291;64759;-25
2021/12/21 03:35:20;;;;;;;6.60;3.90;;;;;;;;;;105796;1291;64881;-27
2021/12/21 03:37:47;;;;;;;7.60;4.30;;;;;;;;;;105825;1290;64869;-25
2021/12/21 03:40:15;;;;;;;6.50;3.70;;;;;;;;;;105817;1294;64845;-26
2021/12/21 03:42:41;;;;;;;8.70;4.70;;;;;;;;;;105813;1290;64698;-26
2021/12/21 03:45:09;;;;;;;8.50;4.30;;;;;;;;;;105689;1294;64726;-28
2021/12/21 03:47:36;;;;;;;7.90;4.30;;;;;;;;;;105711;1292;64961;-26
2021/12/21 03:50:11;;;;;;;6.90;4.00;;;;;;;;;;105812;1290;64855;-26
2021/12/21 03:52:38;;;;;;;7.40;3.90;;;;;;;;;;105821;1292;64893;-26
2021/12/21 03:55:05;;;;;;;6.90;3.70;;;;;;;;;;105809;1291;65288;-26
2021/12/21 03:57:32;;;;;;;8.30;4.30;;;;;;;;;;105841;1290;64851;-26
2021/12/21 03:59:59;;;;;;;7.00;4.10;;;;;;;;;;105873;1291;64853;-25
2021/12/21 04:02:27;;;;;;;8.50;4.50;;;;;;;;;;105835;1290;64709;-26
2021/12/21 04:04:57;;;;;;;6.60;3.60;;;;;;;;;;105813;1290;63981;-29
2021/12/21 04:07:25;;;;;;;7.50;4.00;;;;;;;;;;105816;1291;64818;-26
2021/12/21 04:09:52;;;;;;;7.50;3.90;;;;;;;;;;105631;1291;64839;-26
2021/12/21 04:12:19;;;;;;;7.10;3.90;;;;;;;;;;105801;1291;64902;-25
2021/12/21 04:14:47;;;;;;;7.50;3.80;;;;;;;;;;105862;1291;64740;-26
2021/12/21 04:17:23;;;;;;;6.40;3.10;;;;;;;;;;105800;1293;64775;-25
2021/12/21 04:19:50;;;;;;;7.00;3.70;;;;;;;;;;105849;1290;64818;-26
2021/12/21 04:22:18;;;;;;;7.20;3.60;;;;;;;;;;105825;1290;64897;-26
2021/12/21 04:24:45;;;;;;;7.20;4.10;;;;;;;;;;105863;1290;64964;-25
2021/12/21 04:27:12;;;;;;;6.90;3.20;;;;;;;;;;105820;1290;64965;-26
2021/12/21 04:29:38;;;;;;;6.40;3.50;;;;;;;;;;105836;1292;64961;-26
2021/12/21 04:32:06;;;;;;;6.80;3.80;;;;;;;;;;105862;1290;64849;-25
2021/12/21 04:34:34;;;;;;;7.00;3.80;;;;;;;;;;105853;1290;64862;-25
2021/12/21 04:37:01;;;;;;;6.20;3.70;;;;;;;;;;105862;1290;64932;-27
2021/12/21 04:41:55;;;;;;;6.80;3.70;;;;;;;;;;105816;1291;64841;-24
2021/12/21 04:44:22;;;;;;;6.40;3.40;;;;;;;;;;105813;1290;64821;-25
2021/12/21 04:46:49;;;;;;;7.50;3.20;;;;;;;;;;105821;1294;64855;-26
2021/12/21 04:49:16;;;;;;;6.60;3.30;;;;;;;;;;105845;1294;64832;-30
2021/12/21 04:51:42;;;;;;;6.50;3.30;;;;;;;;;;105850;1290;64752;-29
2021/12/21 04:54:10;;;;;;;6.60;3.40;;;;;;;;;;105803;1293;64669;-26
2021/12/21 04:56:38;;;;;;;7.30;3.30;;;;;;;;;;105840;1284;64830;-25
2021/12/21 04:59:06;;;;;;;6.30;3.10;;;;;;;;;;105847;1290;64729;-24
2021/12/21 05:01:33;;;;;;;6.40;3.30;;;;;;;;;;105846;1290;64846;-25
2021/12/21 05:04:00;;;;;;;5.50;2.90;;;;;;;;;;105799;1293;64786;-26
2021/12/21 05:06:27;;;;;;;5.80;2.90;;;;;;;;;;105713;1292;64850;-25
2021/12/21 05:09:06;;;;;;;6.20;3.50;;;;;;;;;;105730;1290;64861;-26
2021/12/21 05:11:36;;;;;;;6.20;3.40;;;;;;;;;;105499;1296;64765;-25
2021/12/21 05:14:06;;;;;;;5.50;2.90;;;;;;;;;;105831;1290;64954;-25
2021/12/21 05:16:33;;;;;;;5.20;3.00;;;;;;;;;;105832;1291;64839;-25
2021/12/21 05:19:00;;;;;;;5.20;2.80;;;;;;;;;;105824;1291;64878;-25
2021/12/21 05:21:27;;;;;;;5.40;2.50;;;;;;;;;;105853;1291;64733;-25
2021/12/21 05:23:54;;;;;;;6.20;2.90;;;;;;;;;;105793;1290;64736;-25
2021/12/21 05:26:21;;;;;;;4.40;2.50;;;;;;;;;;105844;1290;64737;-27
2021/12/21 05:28:49;;;;;;;5.50;2.90;;;;;;;;;;105856;1294;64796;-26
2021/12/21 05:31:16;;;;;;;5.60;3.00;;;;;;;;;;105862;1290;64848;-26
2021/12/21 05:33:45;;;;;;;5.00;2.50;;;;;;;;;;105853;1290;65013;-26
2021/12/21 05:36:12;;;;;;;4.90;2.60;;;;;;;;;;105689;1283;64828;-27
2021/12/21 05:38:40;;;;;;;5.50;2.80;;;;;;;;;;105815;1290;64881;-28
2021/12/21 05:41:12;;;;;;;6.50;2.80;;;;;;;;;;105680;1294;64778;-27
2021/12/21 05:43:39;;;;;;;5.00;2.40;;;;;;;;;;105623;1293;64830;-26
2021/12/21 05:46:06;;;;;;;4.90;2.50;;;;;;;;;;105829;1290;64885;-27
2021/12/21 05:48:33;;;;;;;5.50;2.30;;;;;;;;;;105837;1290;64835;-25
2021/12/21 05:51:00;;;;;;;4.90;2.50;;;;;;;;;;105622;1291;64751;-25
2021/12/21 05:53:27;;;;;;;5.20;2.20;;;;;;;;;;105803;1290;64852;-26
2021/12/21 05:55:54;;;;;;;5.40;2.40;;;;;;;;;;105826;1290;64853;-26
2021/12/21 05:58:21;;;;;;;5.40;2.70;;;;;;;;;;105847;1290;64841;-29
2021/12/21 06:00:48;;;;;;;4.40;2.30;;;;;;;;;;105636;1294;64750;-26
2021/12/21 06:03:15;;;;;;;4.30;2.40;;;;;;;;;;105608;1290;64778;-35
2021/12/21 06:05:43;;;;;;;5.00;2.10;;;;;;;;;;105827;1294;64834;-27
2021/12/21 06:08:10;;;;;;;5.80;2.70;;;;;;;;;;105834;1291;64903;-26
2021/12/21 06:10:40;;;;;;;5.90;2.70;;;;;;;;;;105856;1294;64706;-25
2021/12/21 06:22:42;;;;;;;7.50;3.10;;;;;;;;;;105281;1296;64994;-25
2021/12/21 06:27:27;;;;;;;7.00;3.30;;;;;;;;;;105828;1291;64844;-25
2021/12/21 06:29:54;;;;;;;7.20;3.00;;;;;;;;;;105886;1294;64775;-25
2021/12/21 06:32:21;;;;;;;6.90;3.50;;;;;;;;;;105858;1290;64911;-25
2021/12/21 06:34:48;;;;;;;6.80;3.00;;;;;;;;;;105847;1290;64751;-25
2021/12/21 06:37:16;;;;;;;6.40;2.90;;;;;;;;;;105884;1291;64853;-26
2021/12/21 06:39:43;;;;;;;7.70;3.40;;;;;;;;;;105904;1290;64890;-25
2021/12/21 06:42:11;;;;;;;6.50;3.10;;;;;;;;;;105847;1294;64926;-25
2021/12/21 06:44:42;;;;;;;6.40;3.00;;;;;;;;;;105838;1290;64837;-25
2021/12/21 06:52:41;;;;;;;6.90;2.60;;;;;;;;;;105819;1290;64841;-26
2021/12/21 06:55:08;;;;;;;6.70;2.80;;;;;;;;;;105825;1290;64864;-24
2021/12/21 06:57:37;;;;;;;6.90;2.90;;;;;;;;;;105805;1288;64841;-25
2021/12/21 07:00:05;;;;;;;6.10;2.80;;;;;;;;;;105829;1291;64900;-26
2021/12/21 07:02:32;;;;;;;5.90;2.90;;;;;;;;;;105831;1290;64745;-26
2021/12/21 07:04:59;;;;;;;4.90;2.40;;;;;;;;;;105798;1290;64923;-25
2021/12/21 07:07:26;;;;;;;5.80;2.50;;;;;;;;;;105843;1291;64841;-25
2021/12/21 07:10:01;;;;;;;5.50;2.30;;;;;;;;;;105833;1290;64852;-25
2021/12/21 07:18:10;;;;;;;5.10;2.40;;;;;;;;;;105908;1290;64751;-25
2021/12/21 07:20:37;;;;;;;;;;;;;;;;;;105853;1294;64795;-25
2021/12/21 07:23:04;;;;;;;6.00;2.90;;;;;;;;;;105838;1290;65347;-25
2021/12/21 07:25:31;;;;;;;6.00;2.90;;;;;;;;;;105822;1290;64887;-25
2021/12/21 07:27:58;;;;;;;6.20;3.10;;;;;;;;;;105633;1290;64875;-32
2021/12/21 07:30:26;;;;;;;6.00;2.60;;;;;;;;;;105662;1295;64742;-24
2021/12/21 07:32:53;;;;;;;6.80;3.40;;;;;;;;;;105607;1294;64802;-25
2021/12/21 07:35:20;;;;;;;6.20;3.00;;;;;;;;;;105631;1290;64915;-25
2021/12/21 07:37:47;;;;;;;6.30;2.60;;;;;;;;;;105820;1282;64848;-27
2021/12/21 07:40:14;;;;;;;5.80;2.70;;;;;;;;;;105340;1296;64754;-26
2021/12/21 07:42:41;;;;;;;6.10;2.90;;;;;;;;;;105792;1290;64742;-25
2021/12/21 07:45:11;;;;;;;5.50;2.50;;;;;;;;;;105606;1293;64949;-25
2021/12/21 07:47:38;;;;;;;7.00;2.80;;;;;;;;;;105864;1290;64881;-25
2021/12/21 07:50:06;;;;;;;5.50;3.00;;;;;;;;;;105837;1290;64845;-24
2021/12/21 07:52:36;;;;;;;5.70;3.10;;;;;;;;;;105814;1290;64868;-27
2021/12/21 07:55:03;;;;;;;6.10;3.00;;;;;;;;;;105600;1290;64857;-26
2021/12/21 07:57:31;;;;;;;5.90;3.50;;;;;;;;;;105594;1293;64843;-25
2021/12/21 07:59:58;;;;;;;5.90;3.10;;;;;;;;;;105630;1291;65100;-25
2021/12/21 08:02:27;;;;;;;6.60;3.10;;;;;;;;;;105848;1290;64848;-25
2021/12/21 08:04:55;;;;;;;6.40;3.20;;;;;;;;;;105808;1291;64833;-25
2021/12/21 08:07:28;;;;;;;7.60;3.50;;;;;;;;;;105859;1290;64780;-25
2021/12/21 08:09:55;;;;;;;5.20;2.90;;;;;;;;;;105704;1290;64812;-24
2021/12/21 08:12:24;;;;;;;5.60;2.90;;;;;;;;;;105875;1290;64909;-25
2021/12/21 08:14:51;;;;;;;6.40;3.50;;;;;;;;;;105673;1294;64872;-25
2021/12/21 08:17:19;;;;;;;7.00;3.10;;;;;;;;;;105870;1290;64845;-26
2021/12/21 08:19:46;;;;;;;5.50;3.20;;;;;;;;;;105822;1291;65953;-25
2021/12/21 08:22:14;;;;;;;6.00;3.10;;;;;;;;;;105844;1290;64793;-25
2021/12/21 08:24:42;;;;;;;7.40;4.40;;;;;;;;;;105837;1290;64856;-28
2021/12/21 08:27:10;;;;;;;6.80;3.50;;;;;;;;;;105673;1293;64779;-26
2021/12/21 08:29:36;;;;;;;7.70;3.40;;;;;;;;;;105812;1290;64777;-26
2021/12/21 08:32:04;;;;;;;6.60;3.70;;;;;;;;;;105566;1279;64835;-25
2021/12/21 08:34:31;;;;;;;5.90;3.40;;;;;;;;;;105807;1290;64834;-25
2021/12/21 08:36:57;;;;;;;7.10;3.90;;;;;;;;;;105830;1290;64853;-28
2021/12/21 08:39:27;;;;;;;6.20;3.30;;;;;;;;;;105819;1290;64701;-25
2021/12/21 08:41:58;;;;;;;6.80;3.80;;;;;;;;;;105650;1291;64848;-25
2021/12/21 08:44:26;;;;;;;7.50;4.10;;;;;;;;;;105753;1290;64841;-26
2021/12/21 08:46:57;;;;;;;6.20;3.70;;;;;;;;;;105544;1297;65978;-26
2021/12/21 08:49:25;;;;;;;6.90;3.70;;;;;;;;;;105685;1293;64772;-25
2021/12/21 08:51:54;;;;;;;7.70;4.00;;;;;;;;;;105708;1293;64849;-26
2021/12/21 08:54:20;;;;;;;7.20;4.10;;;;;;;;;;105646;1293;64847;-23
2021/12/21 08:56:48;;;;;;;6.70;4.10;;;;;;;;;;105685;1294;65902;-26
2021/12/21 08:59:16;;;;;;;6.10;3.60;;;;;;;;;;105661;1293;64882;-26
2021/12/21 09:01:44;;;;;;;7.00;3.80;;;;;;;;;;105644;1293;64900;-26
2021/12/21 09:04:11;;;;;;;6.70;4.50;;;;;;;;;;105646;1291;64872;-26
2021/12/21 09:06:38;;;;;;;6.40;3.70;;;;;;;;;;105673;1293;64871;-24
2021/12/21 09:09:05;;;;;;;7.30;4.00;;;;;;;;;;105705;1293;64791;-26
2021/12/21 09:11:32;;;;;;;7.20;4.10;;;;;;;;;;105577;1293;64952;-24
2021/12/21 09:13:59;;;;;;;7.20;4.00;;;;;;;;;;105348;1293;64769;-26
2021/12/21 09:16:26;;;;;;;8.00;4.60;;;;;;;;;;105602;1293;64798;-27
2021/12/21 09:18:54;;;;;;;7.60;4.10;;;;;;;;;;105350;1294;270845;-26
2021/12/21 09:21:20;;;;;;;6.90;3.70;;;;;;;;;;105528;1293;64861;-27
2021/12/21 09:23:47;;;;;;;6.30;3.90;;;;;;;;;;105501;1293;64867;-25
2021/12/21 09:26:14;;;;;;;6.60;3.70;;;;;;;;;;105507;1293;64998;-24
2021/12/21 09:28:41;;;;;;;6.40;3.50;;;;;;;;;;105270;1297;64911;-24
2021/12/21 09:31:08;;;;;;;6.20;3.60;;;;;;;;;;105506;1297;64192;-28
2021/12/21 09:33:35;;;;;;;7.10;3.90;;;;;;;;;;105536;1293;64847;-27
2021/12/21 09:36:02;;;;;;;7.30;3.70;;;;;;;;;;105609;1293;64790;-26
2021/12/21 09:38:29;;;;;;;7.20;4.00;;;;;;;;;;105533;1293;64828;-27
2021/12/21 09:40:56;;;;;;;6.90;4.20;;;;;;;;;;105591;1293;64732;-26
2021/12/21 09:43:23;;;;;;;7.60;4.20;;;;;;;;;;105583;1293;64837;-24
2021/12/21 09:45:50;;;;;;;6.90;4.00;;;;;;;;;;105593;1294;64849;-23
2021/12/21 09:48:18;;;;;;;7.90;3.80;;;;;;;;;;105552;1296;64845;-23
2021/12/21 09:50:45;;;;;;;8.00;3.90;;;;;;;;;;105555;1295;64748;-25
2021/12/21 09:53:12;;;;;;;6.70;3.90;;;;;;;;;;105525;1293;64903;-26
2021/12/21 09:55:39;;;;;;;7.00;4.20;;;;;;;;;;105387;1296;64991;-25
2021/12/21 09:58:06;;;;;;;6.50;4.00;;;;;;;;;;105574;1285;64895;-25
2021/12/21 10:00:34;;;;;;;7.10;4.00;;;;;;;;;;105437;1294;64767;-28
2021/12/21 10:03:04;;;;;;;8.10;4.10;;;;;;;;;;105577;1294;65428;-27
2021/12/21 10:05:33;;;;;;;6.40;3.90;;;;;;;;;;105404;1298;64840;-26
2021/12/21 10:08:03;;;;;;;6.60;3.60;;;;;;;;;;105399;1296;64915;-27
2021/12/21 10:10:35;;;;;;;8.60;4.40;;;;;;;;;;105609;1292;64814;-26
2021/12/21 10:13:06;;;;;;;6.70;3.80;;;;;;;;;;105664;1296;64938;-27
2021/12/21 10:15:37;;;;;;;6.90;3.60;;;;;;;;;;105572;1293;64837;-25
2021/12/21 10:18:03;;;;;;;6.90;3.80;;;;;;;;;;105605;1293;64929;-24
2021/12/21 10:20:44;;;;;;;7.20;3.70;;;;;;;;;;105691;1285;64750;-30
2021/12/21 10:23:14;;;;;;;7.80;3.80;;;;;;;;;;105642;1294;64975;-27
2021/12/21 10:25:42;;;;;;;6.90;4.00;;;;;;;;;;105639;1292;65946;-29
2021/12/21 10:28:09;;;;;;;6.90;4.20;;;;;;;;;;105669;1294;64706;-30
2021/12/21 10:30:49;;;;;;;6.30;3.70;;;;;;;;;;105506;1296;65010;-25
2021/12/21 10:33:16;;;;;;;5.90;3.40;;;;;;;;;;105674;1294;64820;-25
2021/12/21 10:35:43;;;;;;;6.80;3.60;;;;;;;;;;105686;1293;64751;-27
2021/12/21 10:38:11;;;;;;;7.20;3.50;;;;;;;;;;105570;1293;64802;-27
2021/12/21 10:40:39;;;;;;;7.70;3.70;;;;;;;;;;105574;1294;64818;-32
2021/12/21 10:43:09;;;;;;;5.90;3.20;;;;;;;;;;105598;1291;64842;-24
2021/12/21 10:45:38;;;;;;;6.80;3.10;;;;;;;;;;105716;1295;64698;-24
2021/12/21 10:48:07;;;;;;;6.60;3.40;;;;;;;;;;105679;1294;64975;-24
2021/12/21 10:50:34;;;;;;;6.90;3.20;;;;;;;;;;105709;1291;64714;-23
2021/12/21 10:53:02;;;;;;;7.00;3.70;;;;;;;;;;105534;1297;64759;-25
2021/12/21 10:55:36;;;;;;;5.50;3.30;;;;;;;;;;105689;1294;64902;-25
2021/12/21 10:58:08;;;;;;;6.30;3.70;;;;;;;;;;105519;1293;64757;-27
2021/12/21 11:00:37;;;;;;;6.70;3.70;;;;;;;;;;105558;1293;64858;-26
2021/12/21 11:03:04;;;;;;;6.70;3.20;;;;;;;;;;105650;1293;64971;-24
2021/12/21 11:05:31;;;;;;;6.50;3.20;;;;;;;;;;105666;1291;64850;-25
2021/12/21 11:08:07;;;;;;;7.90;3.50;;;;;;;;;;105499;1292;64921;-26
2021/12/21 11:10:35;;;;;;;5.60;3.30;;;;;;;;;;105664;1295;64826;-26
2021/12/21 11:13:04;;;;;;;6.30;3.20;;;;;;;;;;105597;1294;64704;-27
2021/12/21 11:15:33;;;;;;;6.90;3.20;;;;;;;;;;105803;1294;64969;-26
2021/12/21 11:18:06;;;;;;;6.00;3.20;;;;;;;;;;105840;1291;64842;-24
2021/12/21 11:20:35;;;;;;;5.70;3.20;;;;;;;;;;105799;1284;64769;-26
2021/12/21 11:23:02;;;;;;;6.30;3.70;;;;;;;;;;105704;1294;64860;-26
2021/12/21 11:25:29;;;;;;;6.30;3.30;;;;;;;;;;105786;1294;64841;-26
2021/12/21 11:27:59;;;;;;;6.60;3.50;;;;;;;;;;105857;1291;64908;-26
2021/12/21 11:30:26;;;;;;;6.50;3.30;;;;;;;;;;105601;1292;64877;-27
2021/12/21 11:32:53;;;;;;;6.00;3.50;;;;;;;;;;105766;1291;64864;-26
2021/12/21 11:37:55;;;;;;;6.10;3.40;;;;;;;;;;105617;1294;64867;-25
2021/12/21 11:40:25;;;;;;;4.90;2.90;;;;;;;;;;105365;1294;64867;-25
2021/12/21 11:43:11;;;;;;;7.10;3.20;;;;;;;;;;105354;1289;65283;-24
2021/12/21 11:45:45;;;;;;;6.60;3.30;;;;;;;;;;105417;1293;64903;-25
2021/12/21 11:48:12;;;;;;;;;;;;;;;;;;105412;1293;64948;-26
2021/12/21 11:50:42;;;;;;;6.50;3.40;;;;;;;;;;105509;1297;64829;-25
2021/12/21 11:53:13;;;;;;;6.00;3.50;;;;;;;;;;105480;1288;64867;-27
2021/12/21 11:55:44;;;;;;;6.30;3.20;;;;;;;;;;105242;1290;64888;-27
2021/12/21 11:58:20;;;;;;;6.20;3.50;;;;;;;;;;105276;1291;64852;-28
2021/12/21 12:00:51;;;;;;;5.60;3.20;;;;;;;;;;105255;1296;64808;-27
2021/12/21 12:03:23;;;;;;;6.50;3.40;;;;;;;;;;105286;1296;64922;-26
2021/12/21 12:05:56;;;;;;;6.20;3.40;;;;;;;;;;105442;1297;65933;-31
2021/12/21 12:08:23;;;;;;;;;;;;;;;;;;105290;1297;64849;-26
2021/12/21 12:10:55;;;;;;;6.80;3.30;;;;;;;;;;105495;1296;64841;-27
2021/12/21 12:13:28;;;;;;;7.60;3.90;;;;;;;;;;105352;1296;64811;-26
2021/12/21 12:15:58;;;;;;;6.90;3.70;;;;;;;;;;105621;1296;64833;-26
2021/12/21 12:18:27;;;;;;;7.50;3.50;;;;;;;;;;105637;1291;64884;-26
2021/12/21 12:20:55;;;;;;;6.40;3.40;;;;;;;;;;105620;1293;64868;-27
2021/12/21 12:23:23;;;;;;;6.50;3.70;;;;;;;;;;105606;1294;64880;-26
2021/12/21 12:25:53;;;;;;;6.10;3.50;;;;;;;;;;105380;1293;64885;-27
2021/12/21 12:28:23;;;;;;;5.80;3.50;;;;;;;;;;105558;1294;64812;-26
2021/12/21 12:30:52;;;;;;;8.10;5.30;;;;;;;;;;105397;1294;64856;-25
2021/12/21 12:33:36;;;;;;;8.70;5.60;;;;;;;;;;105267;1297;64825;-33
2021/12/21 12:36:03;;;;;;;8.10;5.70;;;;;;;;;;105538;1293;64751;-26
2021/12/21 12:38:30;;;;;;;10.00;6.10;;;;;;;;;;105501;1296;64762;-25
2021/12/21 12:41:02;;;;;;;9.00;5.50;;;;;;;;;;105435;1294;64935;-30
2021/12/21 12:43:32;;;;;;;8.10;4.10;;;;;;;;;;105610;1296;64944;-26
2021/12/21 12:46:03;;;;;;;9.20;4.40;;;;;;;;;;105573;1292;64939;-27
2021/12/21 12:48:47;;;;;;;8.10;3.90;;;;;;;;;;105254;1297;64888;-26
2021/12/21 12:51:34;;;;;;;8.50;4.40;;;;;;;;;;105549;1296;64870;-28
2021/12/21 12:54:13;;;;;;;8.10;4.10;;;;;;;;;;105245;1293;64898;-27
2021/12/21 12:56:41;;;;;;;7.90;4.50;;;;;;;;;;105027;1302;64795;-31
2021/12/21 12:59:08;;;;;;;7.80;4.40;;;;;;;;;;105502;1295;64855;-37
2021/12/21 13:01:39;;;;;;;7.70;4.40;;;;;;;;;;105573;1296;64856;-42
2021/12/21 13:04:09;;;;;;;6.20;3.80;;;;;;;;;;105560;1293;64857;-27
2021/12/21 13:06:37;;;;;;;7.30;4.80;;;;;;;;;;105617;1293;64864;-26
2021/12/21 13:09:04;;;;;;;8.90;4.40;;;;;;;;;;105583;1296;65529;-26
2021/12/21 13:11:33;;;;;;;8.90;4.50;;;;;;;;;;105614;1295;64891;-24
2021/12/21 13:14:03;;;;;;;7.80;4.20;;;;;;;;;;105728;1296;64868;-31
2021/12/21 13:16:31;;;;;;;7.90;4.40;;;;;;;;;;105661;1296;65315;-27
2021/12/21 13:19:08;;;;;;;10.60;4.90;;;;;;;;;;105693;1292;64749;-27
2021/12/21 13:21:37;;;;;;;7.80;4.60;;;;;;;;;;105662;1295;64871;-26
2021/12/21 13:24:11;;;;;;;8.30;4.60;;;;;;;;;;105488;1297;64782;-26
2021/12/21 13:26:40;;;;;;;6.50;4.00;;;;;;;;;;105729;1292;64820;-26
2021/12/21 13:29:10;;;;;;;7.40;4.20;;;;;;;;;;105679;1295;64857;-24
2021/12/21 13:31:38;;;;;;;7.80;4.40;;;;;;;;;;105704;1294;64789;-36
2021/12/21 13:34:05;;;;;;;7.00;3.90;;;;;;;;;;105684;1293;64876;-27
2021/12/21 13:36:37;;;;;;;7.10;4.30;;;;;;;;;;105675;1294;64885;-25
2021/12/21 13:39:19;;;;;;;7.20;3.90;;;;;;;;;;105709;1295;64742;-27
2021/12/21 13:42:05;;;;;;;7.60;4.20;;;;;;;;;;105587;1293;64852;-31
2021/12/21 13:44:40;;;;;;;6.80;4.30;;;;;;;;;;105691;1295;64823;-25
2021/12/21 13:47:21;;;;;;;7.60;4.60;;;;;;;;;;105698;1294;64800;-27
2021/12/21 13:49:52;;;;;;;6.50;3.80;;;;;;;;;;105701;1292;64865;-30
2021/12/21 13:52:20;;;;;;;7.90;4.10;;;;;;;;;;105662;1295;64825;-24
2021/12/21 13:54:47;;;;;;;7.20;3.80;;;;;;;;;;105681;1293;64862;-23
2021/12/21 13:57:15;;;;;;;8.20;4.10;;;;;;;;;;105739;1295;64738;-25
2021/12/21 13:59:42;;;;;;;8.60;4.40;;;;;;;;;;105715;1291;64893;-24
2021/12/21 14:02:16;;;;;;;7.40;3.80;;;;;;;;;;105671;1294;64882;-24
2021/12/21 14:04:58;;;;;;;6.40;3.90;;;;;;;;;;105630;1296;64778;-22
2021/12/21 14:07:27;;;;;;;8.40;4.10;;;;;;;;;;105615;1292;64827;-25
2021/12/21 14:10:20;;;;;;;7.20;3.60;;;;;;;;;;105660;1292;64887;-24
2021/12/21 14:12:57;;;;;;;7.40;3.60;;;;;;;;;;105579;1293;64728;-23
2021/12/21 14:15:39;;;;;;;8.80;3.90;;;;;;;;;;105342;1299;64777;-23
2021/12/21 14:18:15;;;;;;;7.70;4.30;;;;;;;;;;105627;1296;64849;-21
2021/12/21 14:20:42;;;;;;;6.60;4.10;;;;;;;;;;105600;1294;64862;-24
2021/12/21 14:23:15;;;;;;;7.80;4.00;;;;;;;;;;105302;1295;65126;-32
2021/12/21 14:25:42;;;;;;;7.60;4.10;;;;;;;;;;105560;1296;64861;-26
2021/12/21 14:28:10;;;;;;;6.80;4.10;;;;;;;;;;105489;1296;64877;-26
2021/12/21 14:30:36;;;;;;;7.10;3.90;;;;;;;;;;105464;1297;64913;-23
2021/12/21 14:33:29;;;;;;;7.30;4.00;;;;;;;;;;105507;1296;64747;-22
2021/12/21 14:36:00;;;;;;;8.80;4.70;;;;;;;;;;107993;1295;62674;-27
2021/12/21 14:38:27;;;;;;;9.00;4.90;;;;;;;;;;105649;1296;64842;-25
2021/12/21 14:40:54;;;;;;;8.50;4.30;;;;;;;;;;105459;1295;65000;-24
2021/12/21 14:43:22;;;;;;;9.70;5.20;;;;;;;;;;105653;1295;64773;-23
2021/12/21 14:45:50;;;;;;;8.30;4.80;;;;;;;;;;105677;1297;64853;-21
2021/12/21 14:48:18;;;;;;;10.50;5.10;;;;;;;;;;105766;1283;64923;-30
2021/12/21 14:50:49;;;;;;;8.70;4.90;;;;;;;;;;105685;1292;64854;-26
2021/12/21 14:53:20;;;;;;;8.40;5.20;;;;;;;;;;105668;1296;65235;-24
2021/12/21 14:55:48;;;;;;;9.60;5.30;;;;;;;;;;105668;1294;64969;-25
2021/12/21 14:58:16;;;;;;;11.40;5.10;;;;;;;;;;105827;1294;64815;-22
2021/12/21 15:00:52;;;;;;;9.30;5.40;;;;;;;;;;105561;1292;64866;-25
2021/12/21 15:03:20;;;;;;;10.30;5.30;;;;;;;;;;105605;1296;64711;-25
2021/12/21 15:05:48;;;;;;;10.50;6.10;;;;;;;;;;106263;1295;64752;-23
2021/12/21 15:08:22;;;;;;;9.10;5.50;;;;;;;;;;105567;1296;64975;-27
2021/12/21 15:10:50;;;;;;;9.60;6.40;;;;;;;;;;106092;1296;62790;-26
2021/12/21 15:13:18;;;;;;;11.20;6.10;;;;;;;;;;105434;1296;64719;-28
2021/12/21 15:15:46;;;;;;;9.60;6.10;;;;;;;;;;106908;1296;64345;-24
2021/12/21 15:18:13;;;;;;;11.30;5.90;;;;;;;;;;105710;1296;64744;-25
2021/12/21 15:20:40;;;;;;;10.40;6.50;;;;;;;;;;105577;1286;64854;-25
2021/12/21 15:23:07;;;;;;;10.80;6.20;;;;;;;;;;105550;1296;64713;-25
2021/12/21 15:25:35;;;;;;;9.80;5.90;;;;;;;;;;105442;1295;64878;-26
2021/12/21 15:28:02;;;;;;;10.30;6.00;;;;;;;;;;105514;1293;64746;-23
2021/12/21 15:30:30;;;;;;;10.70;6.20;;;;;;;;;;105296;1293;64918;-22
2021/12/21 15:32:57;;;;;;;10.60;6.30;;;;;;;;;;105713;1298;64903;-25
2021/12/21 15:35:25;;;;;;;10.00;5.90;;;;;;;;;;105479;1296;64867;-25
2021/12/21 15:37:53;;;;;;;9.70;5.90;;;;;;;;;;105506;1295;64747;-28
2021/12/21 15:40:20;;;;;;;8.80;5.20;;;;;;;;;;107835;1293;62914;-23
2021/12/21 15:42:48;;;;;;;9.10;5.20;;;;;;;;;;106160;1296;64742;-25